Time;durP1;ratioP1;P1;durP2;ratioP2;P2;SDS_P1;SDS_P2;PMS_P1;PMS_P2;Temp;Humidity;BMP_temperature;BMP_pressure;BME280_temperature;BME280_humidity;BME280_pressure;Samples;Min_cycle;Max_cycle;Signal;HPM_P1;HPM_P2
2021/03/16 00:00:39;;;;;;;1.83;1.65;;;6.30;99.90;;;;;;5096277;28;20269;-75
2021/03/16 00:03:05;;;;;;;3.05;1.52;;;6.30;99.90;;;;;;5097081;28;20594;-75
2021/03/16 00:05:31;;;;;;;2.33;1.75;;;6.40;99.90;;;;;;5096252;28;20222;-76
2021/03/16 00:07:58;;;;;;;2.15;1.77;;;6.30;99.90;;;;;;5095818;28;20230;-76
2021/03/16 00:10:25;;;;;;;2.15;1.20;;;6.30;99.90;;;;;;5094748;28;20206;-76
2021/03/16 00:12:51;;;;;;;2.45;1.60;;;6.30;99.90;;;;;;5094729;28;20214;-76
2021/03/16 00:15:17;;;;;;;4.18;1.60;;;6.40;99.90;;;;;;5095339;28;20194;-74
2021/03/16 00:17:44;;;;;;;3.97;2.33;;;6.40;99.90;;;;;;5094111;28;20297;-76
2021/03/16 00:20:11;;;;;;;1.50;1.40;;;6.30;99.90;;;;;;5093567;28;20679;-75
2021/03/16 00:22:38;;;;;;;3.17;1.67;;;6.20;99.90;;;;;;5093936;28;20308;-76
2021/03/16 00:25:05;;;;;;;2.03;1.67;;;6.30;99.90;;;;;;5093826;28;20253;-75
2021/03/16 00:27:32;;;;;;;1.98;1.40;;;6.30;99.90;;;;;;5093989;28;20204;-75
2021/03/16 00:29:59;;;;;;;2.47;1.70;;;6.30;99.90;;;;;;5094115;28;20193;-76
2021/03/16 00:32:25;;;;;;;2.55;1.58;;;6.20;99.90;;;;;;5094180;28;20257;-75
2021/03/16 00:34:51;;;;;;;1.95;1.70;;;6.20;99.90;;;;;;5093698;28;20293;-71
2021/03/16 00:37:17;;;;;;;3.35;1.52;;;6.30;99.90;;;;;;5093912;28;20596;-71
2021/03/16 00:39:44;;;;;;;2.38;1.70;;;6.30;99.90;;;;;;5093284;28;20293;-72
2021/03/16 00:42:10;;;;;;;4.50;1.95;;;6.30;99.90;;;;;;5093687;28;20249;-70
2021/03/16 00:44:37;;;;;;;2.30;1.50;;;6.30;99.90;;;;;;5093288;28;20309;-72
2021/03/16 00:47:03;;;;;;;2.60;1.70;;;6.40;99.90;;;;;;5092982;28;20202;-71
2021/03/16 00:49:30;;;;;;;3.20;1.75;;;6.40;99.90;;;;;;5093174;28;20228;-70
2021/03/16 00:51:58;;;;;;;3.28;1.60;;;6.30;99.90;;;;;;5093334;28;20202;-73
2021/03/16 00:54:24;;;;;;;2.42;1.80;;;6.40;99.90;;;;;;5093354;28;20194;-71
2021/03/16 00:56:51;;;;;;;3.55;1.77;;;6.40;99.90;;;;;;5093498;28;20286;-71
2021/03/16 00:59:17;;;;;;;2.17;1.20;;;6.40;99.90;;;;;;5093281;28;20210;-71
2021/03/16 01:01:44;;;;;;;3.40;1.80;;;6.30;99.90;;;;;;5093457;28;20208;-72
2021/03/16 01:04:11;;;;;;;2.40;1.40;;;6.30;99.90;;;;;;5093595;28;20206;-70
2021/03/16 01:06:37;;;;;;;3.45;1.30;;;6.30;99.90;;;;;;5093808;28;20289;-70
2021/03/16 01:09:03;;;;;;;3.88;1.70;;;6.30;99.90;;;;;;5093121;28;20259;-70
2021/03/16 01:11:30;;;;;;;7.97;1.60;;;6.30;99.90;;;;;;5093511;28;20292;-76
2021/03/16 01:13:57;;;;;;;2.70;1.70;;;6.30;99.90;;;;;;5093557;28;20312;-76
2021/03/16 01:16:24;;;;;;;1.75;1.20;;;6.20;99.90;;;;;;5093819;28;20233;-75
2021/03/16 01:18:52;;;;;;;3.58;1.50;;;6.30;99.90;;;;;;5095387;28;20629;-76
2021/03/16 01:21:18;;;;;;;3.63;1.60;;;6.30;99.90;;;;;;5093256;28;20275;-71
2021/03/16 01:23:44;;;;;;;3.45;1.70;;;6.30;99.90;;;;;;5093202;28;20225;-70
2021/03/16 01:26:11;;;;;;;1.65;1.30;;;6.30;99.90;;;;;;5093639;28;20320;-70
2021/03/16 01:28:37;;;;;;;3.70;1.90;;;6.30;99.90;;;;;;5093934;28;20201;-71
2021/03/16 01:31:03;;;;;;;2.78;1.55;;;6.20;99.90;;;;;;5093248;28;20744;-71
2021/03/16 01:33:30;;;;;;;2.88;1.52;;;6.20;99.90;;;;;;5093833;28;20312;-71
2021/03/16 01:35:58;;;;;;;2.47;1.45;;;6.30;99.90;;;;;;5093437;28;20542;-70
2021/03/16 01:38:24;;;;;;;1.15;1.05;;;6.20;99.90;;;;;;5093052;28;20210;-73
2021/03/16 01:40:51;;;;;;;0.88;0.85;;;6.20;99.90;;;;;;5092583;28;20681;-74
2021/03/16 01:43:21;;;;;;;1.80;1.67;;;6.20;99.90;;;;;;5093770;28;20633;-72
2021/03/16 01:45:49;;;;;;;2.10;1.52;;;6.20;99.90;;;;;;5093405;28;20822;-71
2021/03/16 01:48:19;;;;;;;2.83;1.75;;;6.20;99.90;;;;;;5093165;28;20205;-70
2021/03/16 01:50:46;;;;;;;2.15;1.42;;;6.10;99.90;;;;;;5093681;28;20202;-71
2021/03/16 01:53:13;;;;;;;1.67;1.40;;;6.20;99.90;;;;;;5093526;28;20218;-72
2021/03/16 01:55:42;;;;;;;2.70;1.83;;;6.20;99.90;;;;;;5093618;28;20205;-71
2021/03/16 01:58:08;;;;;;;1.20;1.10;;;6.20;99.90;;;;;;5093491;28;20294;-72
2021/03/16 02:00:37;;;;;;;4.10;1.90;;;6.30;99.90;;;;;;5095611;28;20737;-71
2021/03/16 02:03:05;;;;;;;2.25;1.85;;;6.30;99.90;;;;;;5087608;28;20300;-72
2021/03/16 02:05:31;;;;;;;4.13;2.70;;;6.30;99.90;;;;;;5087626;28;20218;-72
2021/03/16 02:08:07;;;;;;;4.90;1.67;;;6.30;99.90;;;;;;5085938;28;20645;-70
2021/03/16 02:10:42;;;;;;;2.72;1.70;;;6.30;99.90;;;;;;5087393;28;20202;-71
2021/03/16 02:13:17;;;;;;;4.55;2.10;;;6.20;99.90;;;;;;5076523;28;20379;-71
2021/03/16 02:15:47;;;;;;;3.17;2.30;;;6.10;99.90;;;;;;5076185;28;20624;-71
2021/03/16 02:18:17;;;;;;;3.22;1.67;;;6.00;99.90;;;;;;5076262;28;20195;-70
2021/03/16 02:20:58;;;;;;;2.50;1.67;;;6.00;99.90;;;;;;5076049;28;20580;-71
2021/03/16 02:23:33;;;;;;;2.65;1.80;;;5.90;99.90;;;;;;5081430;28;20313;-71
2021/03/16 02:26:13;;;;;;;1.40;1.17;;;6.00;99.90;;;;;;5085867;28;20255;-70
2021/03/16 02:28:53;;;;;;;6.00;2.15;;;6.00;99.90;;;;;;5082984;28;20220;-69
2021/03/16 02:31:20;;;;;;;3.72;2.25;;;6.00;99.90;;;;;;5077987;28;20243;-69
2021/03/16 02:33:48;;;;;;;2.53;1.63;;;6.00;99.90;;;;;;5077797;28;20227;-69
2021/03/16 02:36:14;;;;;;;2.67;1.63;;;6.00;99.90;;;;;;5077493;28;20206;-69
2021/03/16 02:38:46;;;;;;;1.95;1.40;;;6.10;99.90;;;;;;5077854;28;20279;-69
2021/03/16 02:41:15;;;;;;;1.83;1.67;;;6.10;99.90;;;;;;5077375;28;20229;-69
2021/03/16 02:43:42;;;;;;;3.40;2.20;;;6.10;99.90;;;;;;5076921;28;20322;-69
2021/03/16 02:46:10;;;;;;;2.03;1.65;;;6.00;99.90;;;;;;5077030;28;20219;-68
2021/03/16 02:48:37;;;;;;;1.83;1.45;;;6.00;99.90;;;;;;5077709;28;20598;-69
2021/03/16 02:51:05;;;;;;;2.45;1.75;;;6.10;99.90;;;;;;5078020;28;20217;-69
2021/03/16 02:53:33;;;;;;;4.35;1.85;;;6.10;99.90;;;;;;5077081;28;20229;-69
2021/03/16 02:56:00;;;;;;;7.57;2.20;;;6.00;99.90;;;;;;5076903;28;20239;-69
2021/03/16 02:58:28;;;;;;;5.18;2.15;;;6.10;99.90;;;;;;5077216;28;20251;-69
2021/03/16 03:00:55;;;;;;;3.40;1.80;;;6.00;99.90;;;;;;5077226;28;20209;-69
2021/03/16 03:03:23;;;;;;;5.00;1.98;;;6.00;99.90;;;;;;5076123;28;20360;-69
2021/03/16 03:05:52;;;;;;;3.55;1.38;;;6.00;99.90;;;;;;5076127;28;20227;-69
2021/03/16 03:08:20;;;;;;;3.28;2.05;;;5.90;99.90;;;;;;5076140;28;20764;-69
2021/03/16 03:10:46;;;;;;;5.10;1.70;;;5.90;99.90;;;;;;5076400;28;20203;-69
2021/03/16 03:13:13;;;;;;;2.60;1.92;;;5.90;99.90;;;;;;5076270;28;20708;-69
2021/03/16 03:15:39;;;;;;;3.13;2.10;;;5.90;99.90;;;;;;5076865;28;20199;-69
2021/03/16 03:18:06;;;;;;;5.20;2.47;;;5.90;99.90;;;;;;5076330;28;20294;-69
2021/03/16 03:20:35;;;;;;;4.10;1.70;;;5.90;99.90;;;;;;5076053;28;20286;-69
2021/03/16 03:23:06;;;;;;;2.72;1.73;;;5.90;99.90;;;;;;5076449;28;20222;-69
2021/03/16 03:25:37;;;;;;;4.30;1.90;;;6.00;99.90;;;;;;5076817;28;20724;-69
2021/03/16 03:28:06;;;;;;;3.10;1.67;;;6.00;99.90;;;;;;5076505;28;20235;-69
2021/03/16 03:30:34;;;;;;;5.03;2.22;;;6.10;99.90;;;;;;5076701;28;20298;-69
2021/03/16 03:33:02;;;;;;;1.70;1.50;;;6.00;99.90;;;;;;5076003;28;20223;-69
2021/03/16 03:35:30;;;;;;;1.95;1.50;;;5.90;99.90;;;;;;5075971;28;20198;-69
2021/03/16 03:37:58;;;;;;;3.33;1.85;;;6.00;99.90;;;;;;5075864;28;20207;-69
2021/03/16 03:40:25;;;;;;;4.05;1.90;;;5.90;99.90;;;;;;5076216;28;20552;-69
2021/03/16 03:42:54;;;;;;;1.92;1.73;;;5.80;99.90;;;;;;5075452;28;20227;-69
2021/03/16 03:45:21;;;;;;;4.47;1.58;;;5.90;99.90;;;;;;5075912;28;20622;-69
2021/03/16 03:47:49;;;;;;;3.28;1.75;;;5.90;99.90;;;;;;5075416;28;20309;-69
2021/03/16 03:50:16;;;;;;;1.70;0.88;;;5.80;99.90;;;;;;5075714;28;20207;-69
2021/03/16 03:52:44;;;;;;;1.23;1.13;;;5.70;99.90;;;;;;5075375;28;20682;-69
2021/03/16 03:55:14;;;;;;;1.05;0.80;;;5.70;99.90;;;;;;5076059;28;20203;-69
2021/03/16 03:57:42;;;;;;;5.50;1.80;;;5.60;99.90;;;;;;5075059;28;20199;-69
2021/03/16 04:00:12;;;;;;;1.75;1.20;;;5.50;99.90;;;;;;5075534;28;20301;-69
2021/03/16 04:02:39;;;;;;;3.10;1.92;;;5.50;99.90;;;;;;5075613;28;20355;-68
2021/03/16 04:05:07;;;;;;;3.10;1.45;;;5.60;99.90;;;;;;5075517;28;20313;-69
2021/03/16 04:07:35;;;;;;;1.92;1.40;;;5.40;99.90;;;;;;5076009;28;20263;-69
2021/03/16 04:10:01;;;;;;;5.05;2.53;;;5.50;99.90;;;;;;5076516;28;20293;-69
2021/03/16 04:12:29;;;;;;;2.40;1.50;;;5.40;99.90;;;;;;5076319;28;20543;-69
2021/03/16 04:14:55;;;;;;;1.77;1.00;;;5.50;99.90;;;;;;5075628;28;20203;-69
2021/03/16 04:17:22;;;;;;;1.90;1.10;;;5.50;99.90;;;;;;5075025;28;20300;-68
2021/03/16 04:19:51;;;;;;;2.13;1.88;;;5.60;99.90;;;;;;5075219;28;20203;-69
2021/03/16 04:22:17;;;;;;;4.40;1.50;;;5.60;99.90;;;;;;5074072;28;20234;-69
2021/03/16 04:24:44;;;;;;;3.33;1.40;;;5.60;99.90;;;;;;5075689;28;20233;-69
2021/03/16 04:27:10;;;;;;;1.10;0.90;;;5.50;99.90;;;;;;5075123;28;20568;-69
2021/03/16 04:29:38;;;;;;;1.50;1.40;;;5.50;99.90;;;;;;5074718;28;20213;-69
2021/03/16 04:32:04;;;;;;;5.07;1.27;;;5.50;99.90;;;;;;5075323;28;20224;-69
2021/03/16 04:34:31;;;;;;;2.65;1.40;;;5.50;99.90;;;;;;5076078;28;20209;-69
2021/03/16 04:36:57;;;;;;;3.38;1.60;;;5.40;99.90;;;;;;5075283;28;20291;-68
2021/03/16 04:39:23;;;;;;;3.72;1.80;;;5.40;99.90;;;;;;5075606;28;20302;-69
2021/03/16 04:41:50;;;;;;;2.58;1.40;;;5.40;99.90;;;;;;5074822;28;20703;-69
2021/03/16 04:44:16;;;;;;;6.25;1.33;;;5.30;99.90;;;;;;5075422;28;20205;-69
2021/03/16 04:46:43;;;;;;;3.63;1.40;;;5.30;99.90;;;;;;5075092;28;20699;-69
2021/03/16 04:49:09;;;;;;;1.90;1.70;;;5.40;99.90;;;;;;5074904;28;20560;-68
2021/03/16 04:51:36;;;;;;;2.42;1.45;;;5.40;99.90;;;;;;5074964;28;20202;-69
2021/03/16 04:54:02;;;;;;;3.22;1.65;;;5.30;99.90;;;;;;5075924;28;20222;-69
2021/03/16 04:56:28;;;;;;;2.08;1.70;;;5.30;99.90;;;;;;5075581;28;20209;-68
2021/03/16 04:58:55;;;;;;;5.35;1.80;;;5.40;99.90;;;;;;5076664;28;20209;-69
2021/03/16 05:01:21;;;;;;;4.05;1.60;;;5.40;99.90;;;;;;5075980;28;20293;-69
2021/03/16 05:03:48;;;;;;;2.55;1.30;;;5.50;99.90;;;;;;5075862;28;20271;-69
2021/03/16 05:06:15;;;;;;;2.97;1.38;;;5.50;99.90;;;;;;5074409;28;20225;-68
2021/03/16 05:08:41;;;;;;;2.10;1.25;;;5.40;99.90;;;;;;5075690;28;20679;-69
2021/03/16 05:11:07;;;;;;;2.08;0.90;;;5.40;99.90;;;;;;5075465;28;20298;-69
2021/03/16 05:13:34;;;;;;;3.13;1.08;;;5.40;99.90;;;;;;5075545;28;20223;-69
2021/03/16 05:16:01;;;;;;;3.70;2.60;;;5.40;99.90;;;;;;5075500;28;20199;-69
2021/03/16 05:18:28;;;;;;;2.67;1.08;;;5.50;99.90;;;;;;5075127;28;20569;-69
2021/03/16 05:20:55;;;;;;;1.92;1.20;;;5.50;99.90;;;;;;5075045;28;20209;-69
2021/03/16 05:23:21;;;;;;;1.50;1.13;;;5.50;99.90;;;;;;5074233;28;20320;-69
2021/03/16 05:25:49;;;;;;;1.65;1.35;;;5.50;99.90;;;;;;5074400;28;20226;-69
2021/03/16 05:28:15;;;;;;;2.28;1.27;;;5.50;99.90;;;;;;5074311;28;20577;-69
2021/03/16 05:30:42;;;;;;;2.10;1.50;;;5.50;99.90;;;;;;5074614;28;20293;-69
2021/03/16 05:33:08;;;;;;;5.25;1.30;;;5.40;99.90;;;;;;5073814;28;20226;-69
2021/03/16 05:35:35;;;;;;;2.53;1.40;;;5.50;99.90;;;;;;5074634;28;20236;-69
2021/03/16 05:38:02;;;;;;;2.20;1.40;;;5.50;99.90;;;;;;5073487;28;20691;-68
2021/03/16 05:40:32;;;;;;;2.20;1.10;;;5.50;99.90;;;;;;5074377;28;20297;-69
2021/03/16 05:42:59;;;;;;;1.38;0.80;;;5.60;99.90;;;;;;5074478;28;20219;-69
2021/03/16 05:45:26;;;;;;;1.35;1.15;;;5.60;99.90;;;;;;5073723;28;20658;-69
2021/03/16 05:47:53;;;;;;;2.10;0.77;;;5.60;99.90;;;;;;5073774;28;20218;-69
2021/03/16 05:50:20;;;;;;;6.80;1.35;;;5.60;99.90;;;;;;5074271;28;20736;-69
2021/03/16 05:52:47;;;;;;;2.03;1.48;;;5.60;99.90;;;;;;5073450;28;20230;-69
2021/03/16 05:55:14;;;;;;;2.67;1.13;;;5.60;99.90;;;;;;5074130;28;20549;-69
2021/03/16 05:57:41;;;;;;;2.10;1.05;;;5.60;99.90;;;;;;5073850;28;20203;-68
2021/03/16 06:00:09;;;;;;;1.08;1.08;;;5.70;99.90;;;;;;5074291;28;20233;-68
2021/03/16 06:02:36;;;;;;;1.88;1.15;;;5.60;99.90;;;;;;5073237;28;20230;-69
2021/03/16 06:05:03;;;;;;;2.15;1.30;;;5.60;99.90;;;;;;5074607;28;20588;-69
2021/03/16 06:07:30;;;;;;;1.30;1.20;;;5.60;99.90;;;;;;5074036;28;20305;-68
2021/03/16 06:09:56;;;;;;;2.85;1.50;;;5.60;99.90;;;;;;5074532;28;20310;-69
2021/03/16 06:12:35;;;;;;;3.75;1.63;;;5.60;99.90;;;;;;5074353;28;20230;-69
2021/03/16 06:15:10;;;;;;;3.90;1.60;;;5.50;99.90;;;;;;5073998;28;20274;-69
2021/03/16 06:17:43;;;;;;;4.35;1.20;;;5.50;99.90;;;;;;5074063;28;20197;-68
2021/03/16 06:20:11;;;;;;;2.67;1.27;;;5.50;99.90;;;;;;5074299;28;20556;-69
2021/03/16 06:22:37;;;;;;;2.38;1.40;;;5.40;99.90;;;;;;5073962;28;20223;-69
2021/03/16 06:25:05;;;;;;;1.15;0.90;;;5.40;99.90;;;;;;5074997;28;20261;-69
2021/03/16 06:27:33;;;;;;;1.88;1.08;;;5.50;99.90;;;;;;5073829;28;20631;-70
2021/03/16 06:29:59;;;;;;;6.53;2.45;;;5.50;99.90;;;;;;5074066;28;20241;-69
2021/03/16 06:32:32;;;;;;;2.90;1.63;;;5.60;99.90;;;;;;5073083;28;20306;-69
2021/03/16 06:34:59;;;;;;;3.55;1.83;;;5.50;99.90;;;;;;5073180;28;20179;-69
2021/03/16 06:37:26;;;;;;;1.88;1.60;;;5.50;99.90;;;;;;5073179;28;20199;-69
2021/03/16 06:39:54;;;;;;;1.85;1.13;;;5.50;99.90;;;;;;5073529;28;20209;-69
2021/03/16 06:42:24;;;;;;;2.50;1.25;;;5.50;99.90;;;;;;5072710;28;20218;-69
2021/03/16 06:45:02;;;;;;;4.00;1.85;;;5.60;99.90;;;;;;5072977;28;20237;-69
2021/03/16 06:47:28;;;;;;;1.48;1.13;;;5.70;99.90;;;;;;5076344;28;20267;-69
2021/03/16 06:49:54;;;;;;;6.00;2.30;;;5.70;99.90;;;;;;5076780;28;20255;-69
2021/03/16 06:52:25;;;;;;;3.53;1.60;;;5.70;99.90;;;;;;5076876;28;20218;-69
2021/03/16 06:54:51;;;;;;;2.78;1.75;;;5.80;99.90;;;;;;5077026;28;20179;-69
2021/03/16 06:57:24;;;;;;;3.97;2.38;;;5.80;99.90;;;;;;5076387;28;20255;-69
2021/03/16 06:59:50;;;;;;;2.30;1.50;;;5.80;99.90;;;;;;5076677;28;20230;-69
2021/03/16 07:02:18;;;;;;;2.85;0.82;;;5.80;99.90;;;;;;5076459;28;20223;-69
2021/03/16 07:04:45;;;;;;;4.78;2.25;;;5.80;99.90;;;;;;5077182;28;20238;-69
2021/03/16 07:07:12;;;;;;;2.75;1.85;;;5.80;99.90;;;;;;5076214;28;20199;-69
2021/03/16 07:09:39;;;;;;;2.17;1.48;;;5.80;99.90;;;;;;5076077;28;20313;-69
2021/03/16 07:12:07;;;;;;;5.38;2.03;;;5.80;99.90;;;;;;5076273;28;20229;-69
2021/03/16 07:14:34;;;;;;;2.45;1.90;;;5.90;99.90;;;;;;5076221;28;20206;-69
2021/03/16 07:17:02;;;;;;;2.58;1.52;;;5.90;99.90;;;;;;5075904;28;20207;-69
2021/03/16 07:19:32;;;;;;;1.85;1.65;;;5.80;99.90;;;;;;5076487;28;20661;-69
2021/03/16 07:22:01;;;;;;;2.53;1.40;;;5.80;99.90;;;;;;5076081;28;20187;-69
2021/03/16 07:24:30;;;;;;;2.72;2.08;;;5.80;99.90;;;;;;5076167;28;20241;-69
2021/03/16 07:26:57;;;;;;;1.50;1.35;;;5.80;99.90;;;;;;5076500;28;20253;-69
2021/03/16 07:29:23;;;;;;;2.75;1.00;;;5.70;99.90;;;;;;5078234;28;20713;-69
2021/03/16 07:31:50;;;;;;;5.25;2.30;;;5.70;99.90;;;;;;5078177;28;20203;-69
2021/03/16 07:34:19;;;;;;;2.97;1.40;;;5.60;99.90;;;;;;5076937;28;20207;-69
2021/03/16 07:36:47;;;;;;;2.65;1.80;;;5.60;99.90;;;;;;5076714;28;20199;-69
2021/03/16 07:39:20;;;;;;;5.55;2.20;;;5.60;99.90;;;;;;5077186;28;20213;-69
2021/03/16 07:41:47;;;;;;;3.25;1.85;;;5.50;99.90;;;;;;5077973;28;20198;-70
2021/03/16 07:44:15;;;;;;;3.22;1.60;;;5.40;99.90;;;;;;5076245;28;20206;-70
2021/03/16 07:46:46;;;;;;;3.63;1.80;;;5.50;99.90;;;;;;5075687;28;20317;-69
2021/03/16 07:49:14;;;;;;;2.92;1.63;;;5.60;99.90;;;;;;5076135;28;20233;-69
2021/03/16 07:51:43;;;;;;;4.32;1.42;;;5.70;99.90;;;;;;5075914;28;20604;-69
2021/03/16 07:54:13;;;;;;;3.35;1.20;;;5.60;99.90;;;;;;5076247;28;20207;-69
2021/03/16 07:56:41;;;;;;;3.95;1.90;;;5.80;99.90;;;;;;5075925;28;20290;-69
2021/03/16 07:59:08;;;;;;;3.15;2.00;;;5.90;99.90;;;;;;5075958;28;20203;-69
2021/03/16 08:01:46;;;;;;;5.28;2.38;;;6.10;99.90;;;;;;5075750;28;20290;-69
2021/03/16 08:04:13;;;;;;;3.20;1.90;;;6.30;99.90;;;;;;5076084;28;20236;-69
2021/03/16 08:06:41;;;;;;;3.15;1.73;;;6.40;99.90;;;;;;5075288;28;20226;-69
2021/03/16 08:09:20;;;;;;;3.55;2.00;;;6.40;99.90;;;;;;5075452;28;20203;-69
2021/03/16 08:11:46;;;;;;;3.90;1.90;;;6.30;99.90;;;;;;5075506;28;20203;-69
2021/03/16 08:14:23;;;;;;;5.32;2.15;;;6.30;99.90;;;;;;5075225;28;20298;-69
2021/03/16 08:16:50;;;;;;;4.60;2.05;;;6.20;99.90;;;;;;5074925;28;20275;-69
2021/03/16 08:19:18;;;;;;;5.50;2.10;;;6.20;99.90;;;;;;5076347;28;20234;-72
2021/03/16 08:21:46;;;;;;;3.75;2.03;;;6.20;99.90;;;;;;5085070;28;20202;-72
2021/03/16 08:24:14;;;;;;;1.63;1.50;;;6.30;99.90;;;;;;5094366;28;20271;-71
2021/03/16 08:26:49;;;;;;;2.03;1.90;;;6.50;99.90;;;;;;5093740;28;20249;-71
2021/03/16 08:29:24;;;;;;;5.00;2.00;;;6.40;99.90;;;;;;5094165;28;20207;-73
2021/03/16 08:31:51;;;;;;;3.30;2.25;;;6.40;99.90;;;;;;5093546;28;20205;-71
2021/03/16 08:34:18;;;;;;;4.90;2.22;;;6.40;99.90;;;;;;5093493;28;20198;-77
2021/03/16 08:36:44;;;;;;;3.33;1.60;;;6.30;99.90;;;;;;5093569;28;20288;-77
2021/03/16 08:39:18;;;;;;;3.15;1.83;;;6.40;99.90;;;;;;5093746;28;20224;-78
2021/03/16 08:41:56;;;;;;;1.98;0.98;;;6.20;99.90;;;;;;5093784;28;20678;-78
2021/03/16 08:44:22;;;;;;;3.22;1.80;;;6.20;99.90;;;;;;5093201;28;20316;-77
2021/03/16 08:46:49;;;;;;;2.22;1.50;;;6.30;99.90;;;;;;5093000;28;20252;-76
2021/03/16 08:49:17;;;;;;;4.93;1.80;;;6.40;99.90;;;;;;5093227;28;20205;-76
2021/03/16 08:51:43;;;;;;;4.85;2.15;;;6.40;99.90;;;;;;5092923;28;20210;-77
2021/03/16 08:54:10;;;;;;;3.10;2.00;;;6.60;99.90;;;;;;5093114;28;20309;-76
2021/03/16 08:56:37;;;;;;;3.33;2.10;;;6.60;99.90;;;;;;5093179;28;20293;-76
2021/03/16 08:59:05;;;;;;;4.78;2.00;;;6.70;99.90;;;;;;5093190;28;20237;-77
2021/03/16 09:01:33;;;;;;;4.22;1.92;;;6.70;99.90;;;;;;5095117;28;20298;-71
2021/03/16 09:04:10;;;;;;;3.95;1.77;;;6.80;99.90;;;;;;5097138;28;20222;-71
2021/03/16 09:06:36;;;;;;;2.53;2.20;;;6.70;99.90;;;;;;5095702;28;20226;-71
2021/03/16 09:09:03;;;;;;;5.28;2.35;;;6.80;99.90;;;;;;5096590;28;20202;-71
2021/03/16 09:11:31;;;;;;;3.80;2.58;;;6.80;99.90;;;;;;5097117;28;20574;-71
2021/03/16 09:14:13;;;;;;;2.08;1.95;;;6.80;99.90;;;;;;5096130;28;20222;-71
2021/03/16 09:16:41;;;;;;;3.97;2.45;;;6.80;99.90;;;;;;5095033;28;20601;-70
2021/03/16 09:19:09;;;;;;;3.58;2.10;;;6.80;99.90;;;;;;5095425;28;20230;-70
2021/03/16 09:21:37;;;;;;;2.35;2.03;;;6.80;99.90;;;;;;5094861;28;20289;-70
2021/03/16 09:24:04;;;;;;;3.10;2.40;;;6.80;99.90;;;;;;5095525;28;20222;-70
2021/03/16 09:26:31;;;;;;;3.53;1.88;;;6.80;99.90;;;;;;5094756;28;20674;-70
2021/03/16 09:29:01;;;;;;;4.00;2.65;;;6.90;99.90;;;;;;5095199;28;20653;-71
2021/03/16 09:31:28;;;;;;;4.68;2.47;;;6.80;99.90;;;;;;5094564;28;20209;-71
2021/03/16 09:33:55;;;;;;;5.45;1.95;;;6.70;99.90;;;;;;5094877;28;20602;-71
2021/03/16 09:36:27;;;;;;;5.10;2.40;;;6.50;99.90;;;;;;5094618;28;20633;-70
2021/03/16 09:38:58;;;;;;;6.20;2.47;;;6.50;99.90;;;;;;5094910;28;20198;-71
2021/03/16 09:41:24;;;;;;;2.90;2.47;;;6.50;99.90;;;;;;5094923;28;20289;-71
2021/03/16 09:43:51;;;;;;;3.53;2.35;;;6.50;99.90;;;;;;5094811;28;20298;-71
2021/03/16 09:46:17;;;;;;;2.67;1.95;;;6.50;99.90;;;;;;5093972;28;20700;-70
2021/03/16 09:48:49;;;;;;;2.83;2.03;;;6.50;99.90;;;;;;5094950;28;20262;-71
2021/03/16 09:51:17;;;;;;;4.53;2.90;;;6.20;99.90;;;;;;5094575;28;20202;-70
2021/03/16 09:53:47;;;;;;;3.05;1.65;;;6.30;99.90;;;;;;5095033;28;20336;-70
2021/03/16 09:56:14;;;;;;;4.03;2.20;;;6.40;99.90;;;;;;5094401;28;20236;-70
2021/03/16 09:58:48;;;;;;;3.83;2.08;;;6.20;99.90;;;;;;5094572;28;20197;-70
2021/03/16 10:01:14;;;;;;;5.90;2.97;;;6.10;99.90;;;;;;5094726;28;20585;-71
2021/03/16 10:03:41;;;;;;;4.93;2.05;;;6.10;99.90;;;;;;5094925;28;20563;-71
2021/03/16 10:06:08;;;;;;;7.25;2.72;;;6.00;99.90;;;;;;5094543;28;20218;-70
2021/03/16 10:08:35;;;;;;;5.05;2.90;;;6.10;99.90;;;;;;5094703;28;20264;-70
2021/03/16 10:11:01;;;;;;;4.45;2.40;;;6.10;99.90;;;;;;5094593;28;20206;-70
2021/03/16 10:13:33;;;;;;;4.70;2.53;;;6.30;99.90;;;;;;5094582;28;20621;-71
2021/03/16 10:16:08;;;;;;;4.18;2.50;;;6.60;99.90;;;;;;5093872;28;20205;-70
2021/03/16 10:18:38;;;;;;;7.68;3.00;;;6.70;99.90;;;;;;5094829;28;20201;-71
2021/03/16 10:21:05;;;;;;;3.35;3.03;;;6.80;99.90;;;;;;5096802;28;20297;-71
2021/03/16 10:23:32;;;;;;;4.50;2.40;;;6.90;99.90;;;;;;5098147;28;20232;-71
2021/03/16 10:26:01;;;;;;;4.45;3.00;;;6.90;99.90;;;;;;5098322;28;20343;-70
2021/03/16 10:28:35;;;;;;;5.65;2.55;;;6.90;99.90;;;;;;5097971;28;20304;-70
2021/03/16 10:31:15;;;;;;;5.05;2.15;;;7.10;99.90;;;;;;5097804;28;20641;-70
2021/03/16 10:33:42;;;;;;;7.78;3.60;;;7.50;99.90;;;;;;5097736;28;20225;-70
2021/03/16 10:36:09;;;;;;;6.45;4.05;;;7.80;99.90;;;;;;5097094;28;20289;-70
2021/03/16 10:38:36;;;;;;;7.30;2.90;;;7.80;99.90;;;;;;5097330;28;20237;-71
2021/03/16 10:41:03;;;;;;;3.50;2.20;;;7.90;99.90;;;;;;5097663;28;20301;-71
2021/03/16 10:43:29;;;;;;;3.40;2.28;;;7.80;99.90;;;;;;5098494;28;20317;-71
2021/03/16 10:45:57;;;;;;;4.68;2.60;;;7.70;99.90;;;;;;5098080;28;20230;-70
2021/03/16 10:48:23;;;;;;;8.13;2.78;;;7.60;99.90;;;;;;5097512;28;20690;-70
2021/03/16 10:50:50;;;;;;;2.60;1.80;;;7.50;99.90;;;;;;5097171;28;20210;-70
2021/03/16 10:53:17;;;;;;;5.10;2.53;;;7.60;99.90;;;;;;5097268;28;20618;-70
2021/03/16 10:55:44;;;;;;;4.53;2.20;;;7.60;99.90;;;;;;5097270;28;20288;-70
2021/03/16 10:58:11;;;;;;;7.93;2.10;;;7.40;99.90;;;;;;5096732;28;20297;-70
2021/03/16 11:00:38;;;;;;;4.90;2.53;;;7.40;99.90;;;;;;5096686;28;20293;-70
2021/03/16 11:03:04;;;;;;;5.70;2.22;;;7.50;99.90;;;;;;5096512;28;20218;-70
2021/03/16 11:05:31;;;;;;;6.68;2.35;;;7.80;99.90;;;;;;5096555;28;20224;-70
2021/03/16 11:07:58;;;;;;;3.85;2.17;;;7.90;99.90;;;;;;5096603;28;20202;-70
2021/03/16 11:10:24;;;;;;;4.40;2.60;;;7.80;99.90;;;;;;5096842;28;20296;-70
2021/03/16 11:12:51;;;;;;;8.98;2.67;;;7.60;99.90;;;;;;5096550;28;20821;-70
2021/03/16 11:15:18;;;;;;;4.32;2.70;;;7.60;99.90;;;;;;5097274;28;20259;-70
2021/03/16 11:17:44;;;;;;;3.50;2.22;;;7.40;99.90;;;;;;5096351;28;20202;-70
2021/03/16 11:20:12;;;;;;;2.97;2.00;;;7.20;99.90;;;;;;5096591;28;20644;-70
2021/03/16 11:22:38;;;;;;;3.67;2.30;;;7.30;99.90;;;;;;5096204;28;20225;-70
2021/03/16 11:25:06;;;;;;;6.13;2.42;;;7.50;99.90;;;;;;5096815;28;20205;-70
2021/03/16 11:27:32;;;;;;;4.15;2.15;;;7.60;99.90;;;;;;5095970;28;20201;-70
2021/03/16 11:30:00;;;;;;;2.13;1.63;;;7.70;99.90;;;;;;5096694;28;20544;-70
2021/03/16 11:32:27;;;;;;;7.22;2.33;;;7.80;99.90;;;;;;5095957;28;20253;-70
2021/03/16 11:34:53;;;;;;;3.55;2.72;;;7.70;99.90;;;;;;5096165;28;20656;-70
2021/03/16 11:37:19;;;;;;;7.03;2.53;;;7.50;99.90;;;;;;5096242;28;20223;-70
2021/03/16 11:39:46;;;;;;;4.72;2.42;;;7.50;99.90;;;;;;5096431;28;20212;-70
2021/03/16 11:42:12;;;;;;;8.52;2.10;;;7.60;99.90;;;;;;5096364;28;20821;-70
2021/03/16 11:44:39;;;;;;;2.95;2.15;;;7.50;99.90;;;;;;5095767;28;20206;-70
2021/03/16 11:47:06;;;;;;;3.42;2.25;;;7.30;99.90;;;;;;5095823;28;20226;-70
2021/03/16 11:49:32;;;;;;;4.43;2.28;;;7.40;99.90;;;;;;5096554;28;20233;-70
2021/03/16 11:51:59;;;;;;;3.28;1.95;;;7.30;99.90;;;;;;5096772;28;20242;-70
2021/03/16 11:54:25;;;;;;;3.85;2.20;;;7.20;99.90;;;;;;5097019;28;20202;-70
2021/03/16 11:56:51;;;;;;;2.92;2.20;;;7.10;99.90;;;;;;5097325;28;20285;-70
2021/03/16 11:59:18;;;;;;;3.72;2.17;;;6.90;99.90;;;;;;5097113;28;20213;-71
2021/03/16 12:01:44;;;;;;;3.70;2.40;;;6.70;99.90;;;;;;5097022;28;20627;-70
2021/03/16 12:04:11;;;;;;;4.55;1.85;;;6.60;99.90;;;;;;5096639;28;20214;-71
2021/03/16 12:06:38;;;;;;;3.95;2.28;;;6.80;99.90;;;;;;5095677;28;20612;-70
2021/03/16 12:09:06;;;;;;;3.15;2.10;;;7.00;99.90;;;;;;5095778;28;20202;-70
2021/03/16 12:11:33;;;;;;;4.45;2.13;;;7.20;99.90;;;;;;5095985;28;20253;-70
2021/03/16 12:14:00;;;;;;;3.38;2.10;;;7.20;99.90;;;;;;5095844;28;20628;-70
2021/03/16 12:16:26;;;;;;;5.45;1.80;;;7.30;99.90;;;;;;5095164;28;20262;-70
2021/03/16 12:18:52;;;;;;;3.25;1.55;;;7.40;99.90;;;;;;5095712;28;20216;-70
2021/03/16 12:21:19;;;;;;;4.28;2.05;;;7.60;99.90;;;;;;5095626;28;20202;-70
2021/03/16 12:23:46;;;;;;;4.55;2.38;;;7.50;99.90;;;;;;5096193;28;20222;-70
2021/03/16 12:26:13;;;;;;;3.72;1.67;;;7.50;99.90;;;;;;5095736;28;20222;-70
2021/03/16 12:28:39;;;;;;;3.50;2.08;;;7.60;99.90;;;;;;5095461;28;20202;-70
2021/03/16 12:31:05;;;;;;;5.20;1.98;;;7.80;99.90;;;;;;5095474;28;20216;-70
2021/03/16 12:33:32;;;;;;;3.20;2.00;;;8.00;99.90;;;;;;5095138;28;20687;-70
2021/03/16 12:35:58;;;;;;;2.83;1.90;;;8.10;99.80;;;;;;5095208;28;20202;-70
2021/03/16 12:38:25;;;;;;;3.25;1.55;;;8.20;98.70;;;;;;5095493;28;20290;-70
2021/03/16 12:40:51;;;;;;;2.58;1.77;;;8.30;97.20;;;;;;5095424;28;20217;-70
2021/03/16 12:43:20;;;;;;;3.92;2.42;;;8.30;96.00;;;;;;5094512;28;20321;-70
2021/03/16 12:45:46;;;;;;;3.17;1.67;;;8.20;96.20;;;;;;5095088;28;20230;-70
2021/03/16 12:48:13;;;;;;;3.22;1.52;;;7.90;95.70;;;;;;5095080;28;20206;-70
2021/03/16 12:50:39;;;;;;;3.45;1.70;;;7.90;95.00;;;;;;5095391;28;20198;-70
2021/03/16 12:53:06;;;;;;;1.90;1.80;;;7.80;95.20;;;;;;5095328;28;20688;-70
2021/03/16 12:55:33;;;;;;;4.43;2.00;;;7.90;95.10;;;;;;5094649;28;20202;-70
2021/03/16 12:58:00;;;;;;;4.68;1.35;;;7.90;95.40;;;;;;5094487;28;20297;-70
2021/03/16 13:00:27;;;;;;;4.38;2.45;;;7.90;94.70;;;;;;5094771;28;20236;-70